createdAt,value
2019-02-23T00:00:04.166Z,20.65
2019-02-23T00:01:04.224Z,20.64
2019-02-23T00:02:04.282Z,20.71
2019-02-23T00:03:04.357Z,20.80
2019-02-23T00:04:04.359Z,20.84
2019-02-23T00:05:04.412Z,20.83
2019-02-23T00:06:04.450Z,20.69
2019-02-23T00:07:04.483Z,20.66
2019-02-23T00:08:04.555Z,20.68
2019-02-23T00:09:04.587Z,20.72
2019-02-23T00:10:04.634Z,20.74
2019-02-23T00:11:04.700Z,20.72
2019-02-23T00:12:04.822Z,20.76
2019-02-23T00:13:04.758Z,20.79
2019-02-23T00:14:04.827Z,20.81
2019-02-23T00:15:04.866Z,20.74
2019-02-23T00:16:04.909Z,20.79
2019-02-23T00:17:04.944Z,20.80
2019-02-23T00:18:04.983Z,20.71
2019-02-23T00:19:05.044Z,20.76
2019-02-23T00:20:05.093Z,20.77
2019-02-23T00:21:05.145Z,20.81
2019-02-23T00:22:05.201Z,20.80
2019-02-23T00:23:05.233Z,20.83
2019-02-23T00:24:05.280Z,20.83
2019-02-23T00:25:05.308Z,20.84
2019-02-23T00:26:05.365Z,20.83
2019-02-23T00:27:05.400Z,20.84
2019-02-23T00:28:05.448Z,20.83
2019-02-23T00:29:05.497Z,20.86
2019-02-23T00:30:05.554Z,20.86
2019-02-23T00:31:05.580Z,20.80
2019-02-23T00:32:05.618Z,20.81
2019-02-23T00:33:05.695Z,20.98
2019-02-23T00:34:05.727Z,20.93
2019-02-23T00:35:05.774Z,20.96
2019-02-23T00:36:05.795Z,20.93
2019-02-23T00:37:05.870Z,20.99
2019-02-23T00:38:05.927Z,20.93
2019-02-23T00:39:06.002Z,20.93
2019-02-23T00:40:06.016Z,20.99
2019-02-23T00:41:06.043Z,20.99
2019-02-23T00:42:06.082Z,21.11
2019-02-23T00:43:06.154Z,20.93
2019-02-23T00:44:06.190Z,21.01
2019-02-23T00:45:06.232Z,21.02
2019-02-23T00:46:06.324Z,21.05
2019-02-23T00:47:06.321Z,20.95
2019-02-23T00:48:06.383Z,21.02
2019-02-23T00:49:06.415Z,20.93
2019-02-23T00:50:06.460Z,20.99
2019-02-23T00:51:06.517Z,21.04
2019-02-23T00:52:06.545Z,21.01
2019-02-23T00:53:06.594Z,21.05
2019-02-23T00:54:06.632Z,21.05
2019-02-23T00:55:06.692Z,21.08
2019-02-23T00:56:06.724Z,21.11
2019-02-23T00:57:06.785Z,21.01
2019-02-23T00:58:06.837Z,21.16
2019-02-23T00:59:06.889Z,21.08
2019-02-23T01:00:06.937Z,21.14
2019-02-23T01:01:06.973Z,21.08
2019-02-23T01:02:07.036Z,21.20
2019-02-23T01:03:07.058Z,21.17
2019-02-23T01:04:07.147Z,21.11
2019-02-23T01:05:07.158Z,21.04
2019-02-23T01:06:07.187Z,21.09
2019-02-23T01:07:07.237Z,21.04
2019-02-23T01:08:07.298Z,21.11
2019-02-23T01:09:07.328Z,21.08
2019-02-23T01:10:07.382Z,20.99
2019-02-23T01:11:07.437Z,21.11
2019-02-23T01:12:07.513Z,21.13
2019-02-23T01:13:07.517Z,21.08
2019-02-23T01:14:07.601Z,21.08
2019-02-23T01:15:07.605Z,21.08
2019-02-23T01:16:07.662Z,20.99
2019-02-23T01:17:07.716Z,21.20
2019-02-23T01:18:07.773Z,21.13
2019-02-23T01:19:07.831Z,21.16
2019-02-23T01:20:07.847Z,21.04
2019-02-23T01:21:07.879Z,21.13
2019-02-23T01:22:07.954Z,21.06
2019-02-23T01:23:07.981Z,21.05
2019-02-23T01:24:08.023Z,21.14
2019-02-23T01:25:08.091Z,21.14
2019-02-23T01:26:08.174Z,21.11
2019-02-23T01:27:08.164Z,21.11
2019-02-23T01:28:08.207Z,21.08
2019-02-23T01:29:08.281Z,21.16
2019-02-23T01:30:08.327Z,21.11
2019-02-23T01:31:08.369Z,21.16
2019-02-23T01:32:08.405Z,21.09
2019-02-23T01:33:08.451Z,21.14
2019-02-23T01:34:08.491Z,21.06
2019-02-23T01:35:08.543Z,21.09
2019-02-23T01:36:08.639Z,21.11
2019-02-23T01:37:08.634Z,21.05
2019-02-23T01:38:08.677Z,21.08
2019-02-23T01:39:08.750Z,21.04
2019-02-23T01:40:08.821Z,21.20
2019-02-23T01:41:08.838Z,21.09
2019-02-23T01:42:08.893Z,21.08
2019-02-23T01:43:08.911Z,20.99
2019-02-23T01:44:08.958Z,21.04
2019-02-23T01:45:08.999Z,21.09
2019-02-23T01:46:09.056Z,21.04
2019-02-23T01:47:09.123Z,21.04
2019-02-23T01:48:09.136Z,21.11
2019-02-23T01:49:09.243Z,21.14
2019-02-23T01:50:09.231Z,21.02
2019-02-23T01:51:09.303Z,21.11
2019-02-23T01:52:09.325Z,21.09
2019-02-23T01:53:09.382Z,21.05
2019-02-23T01:54:09.418Z,21.04
2019-02-23T01:55:09.486Z,21.14
2019-02-23T01:56:09.527Z,21.01
2019-02-23T01:57:09.584Z,21.11
2019-02-23T01:58:09.628Z,21.08
2019-02-23T01:59:09.660Z,21.14
2019-02-23T02:00:09.689Z,21.04
2019-02-23T02:01:09.762Z,21.05
2019-02-23T02:02:09.792Z,21.08
2019-02-23T02:03:09.883Z,21.13
2019-02-23T02:04:09.899Z,21.08
2019-02-23T02:05:09.947Z,21.05
2019-02-23T02:06:09.981Z,21.01
2019-02-23T02:07:10.031Z,21.13
2019-02-23T02:08:10.082Z,21.08
2019-02-23T02:09:10.119Z,21.13
2019-02-23T02:10:10.179Z,21.08
2019-02-23T02:11:10.214Z,21.08
2019-02-23T02:12:10.253Z,21.06
2019-02-23T02:13:10.280Z,21.06
2019-02-23T02:14:10.354Z,21.06
2019-02-23T02:15:10.379Z,21.14
2019-02-23T02:16:10.421Z,21.17
2019-02-23T02:17:10.494Z,21.01
2019-02-23T02:18:10.525Z,21.09
2019-02-23T02:19:10.578Z,21.16
2019-02-23T02:20:11.630Z,21.09
2019-02-23T02:21:10.665Z,21.08
2019-02-23T02:22:10.699Z,21.09
2019-02-23T02:23:10.762Z,21.06
2019-02-23T02:24:10.800Z,21.06
2019-02-23T02:25:10.867Z,21.05
2019-02-23T02:26:10.936Z,21.05
2019-02-23T02:27:10.941Z,21.01
2019-02-23T02:28:10.986Z,21.13
2019-02-23T02:29:11.024Z,21.11
2019-02-23T02:30:11.087Z,21.09
2019-02-23T02:31:11.110Z,21.11
2019-02-23T02:32:11.178Z,21.13
2019-02-23T02:33:11.283Z,21.13
2019-02-23T02:34:11.313Z,21.06
2019-02-23T02:35:11.318Z,21.17
2019-02-23T02:36:11.344Z,21.05
2019-02-23T02:37:11.400Z,21.11
2019-02-23T02:38:11.431Z,21.11
2019-02-23T02:39:11.498Z,21.09
2019-02-23T02:40:11.581Z,21.04
2019-02-23T02:41:11.575Z,21.05
2019-02-23T02:42:11.627Z,21.17
2019-02-23T02:43:11.715Z,21.02
2019-02-23T02:44:11.713Z,21.17
2019-02-23T02:45:11.780Z,21.05
2019-02-23T02:46:11.812Z,21.20
2019-02-23T02:47:11.845Z,21.04
2019-02-23T02:48:11.904Z,21.09
2019-02-23T02:49:11.978Z,21.09
2019-02-23T02:50:23.750Z,21.14
2019-02-23T02:51:12.035Z,21.09
2019-02-23T02:52:12.097Z,21.06
2019-02-23T02:53:12.118Z,21.06
2019-02-23T02:54:12.180Z,21.11
2019-02-23T02:55:12.230Z,21.14
2019-02-23T02:56:12.247Z,21.05
2019-02-23T02:57:12.332Z,21.06
2019-02-23T02:58:12.365Z,21.11
2019-02-23T02:59:12.387Z,21.13
2019-02-23T03:00:12.443Z,21.14
2019-02-23T03:01:12.536Z,21.11
2019-02-23T03:02:12.525Z,21.13
2019-02-23T03:03:12.583Z,21.08
2019-02-23T03:04:12.640Z,21.13
2019-02-23T03:05:12.682Z,21.14
2019-02-23T03:06:12.722Z,21.11
2019-02-23T03:07:12.800Z,21.17
2019-02-23T03:08:12.815Z,21.17
2019-02-23T03:09:12.868Z,21.11
2019-02-23T03:10:12.915Z,21.17
2019-02-23T03:11:12.945Z,21.13
2019-02-23T03:12:12.990Z,21.11
2019-02-23T03:13:13.019Z,21.14
2019-02-23T03:14:13.073Z,21.17
2019-02-23T03:15:13.155Z,21.11
2019-02-23T03:16:13.173Z,21.16
2019-02-23T03:17:13.232Z,21.11
2019-02-23T03:18:13.259Z,21.13
2019-02-23T03:19:13.330Z,21.16
2019-02-23T03:20:13.354Z,21.09
2019-02-23T03:21:13.406Z,21.13
2019-02-23T03:22:13.446Z,21.16
2019-02-23T03:23:13.476Z,21.24
2019-02-23T03:24:13.549Z,21.24
2019-02-23T03:25:13.579Z,21.29
2019-02-23T03:26:13.654Z,21.19
2019-02-23T03:27:13.684Z,21.14
2019-02-23T03:28:13.733Z,21.20
2019-02-23T03:29:13.769Z,21.19
2019-02-23T03:30:13.827Z,21.16
2019-02-23T03:31:13.853Z,21.21
2019-02-23T03:32:13.910Z,21.17
2019-02-23T03:33:13.977Z,21.19
2019-02-23T03:34:14.176Z,21.17
2019-02-23T03:35:14.040Z,21.09
2019-02-23T03:36:14.109Z,21.11
2019-02-23T03:37:14.142Z,21.11
2019-02-23T03:38:14.191Z,21.13
2019-02-23T03:39:14.223Z,21.17
2019-02-23T03:40:14.272Z,21.11
2019-02-23T03:41:14.306Z,21.08
2019-02-23T03:42:14.399Z,21.09
2019-02-23T03:43:14.397Z,21.14
2019-02-23T03:44:14.434Z,21.13
2019-02-23T03:45:14.490Z,21.14
2019-02-23T03:46:14.555Z,21.14
2019-02-23T03:47:14.582Z,21.13
2019-02-23T03:48:14.628Z,21.08
2019-02-23T03:49:14.684Z,21.14
2019-02-23T03:50:14.725Z,21.09
2019-02-23T03:51:14.779Z,21.11
2019-02-23T03:52:14.824Z,21.14
2019-02-23T03:53:14.867Z,21.09
2019-02-23T03:54:14.912Z,21.17
2019-02-23T03:55:14.971Z,21.04
2019-02-23T03:56:15.009Z,21.08
2019-02-23T03:57:15.044Z,21.13
2019-02-23T03:58:15.083Z,21.08
2019-02-23T03:59:15.131Z,21.14
2019-02-23T04:00:15.179Z,21.04
2019-02-23T04:01:15.266Z,21.14
2019-02-23T04:02:15.276Z,21.04
2019-02-23T04:03:15.321Z,21.08
2019-02-23T04:04:15.358Z,21.14
2019-02-23T04:05:15.416Z,21.05
2019-02-23T04:06:15.455Z,21.13
2019-02-23T04:07:15.504Z,21.09
2019-02-23T04:08:15.545Z,21.13
2019-02-23T04:09:15.614Z,21.08
2019-02-23T04:10:15.647Z,21.04
2019-02-23T04:11:15.672Z,21.06
2019-02-23T04:12:15.751Z,21.06
2019-02-23T04:13:15.785Z,21.06
2019-02-23T04:14:15.818Z,21.05
2019-02-23T04:15:15.870Z,21.05
2019-02-23T04:16:15.948Z,21.05
2019-02-23T04:17:15.960Z,21.04
2019-02-23T04:18:16.007Z,21.08
2019-02-23T04:19:16.053Z,21.04
2019-02-23T04:20:16.090Z,21.08
2019-02-23T04:21:16.139Z,21.04
2019-02-23T04:22:16.186Z,21.01
2019-02-23T04:23:16.214Z,20.99
2019-02-23T04:24:16.270Z,20.99
2019-02-23T04:25:16.336Z,20.96
2019-02-23T04:26:16.371Z,20.93
2019-02-23T04:27:16.416Z,21.02
2019-02-23T04:28:16.466Z,20.95
2019-02-23T04:29:16.547Z,21.04
2019-02-23T04:30:16.604Z,21.05
2019-02-23T04:31:16.579Z,20.96
2019-02-23T04:32:16.734Z,21.04
2019-02-23T04:33:16.693Z,21.01
2019-02-23T04:34:16.780Z,20.99
2019-02-23T04:35:16.764Z,21.04
2019-02-23T04:36:16.818Z,20.96
2019-02-23T04:37:16.873Z,20.98
2019-02-23T04:38:16.979Z,21.01
2019-02-23T04:39:16.940Z,21.04
2019-02-23T04:40:17.001Z,21.04
2019-02-23T04:41:17.054Z,21.02
2019-02-23T04:42:17.082Z,21.01
2019-02-23T04:43:17.141Z,21.08
2019-02-23T04:44:17.181Z,21.02
2019-02-23T04:45:17.230Z,21.04
2019-02-23T04:46:17.284Z,20.99
2019-02-23T04:47:17.321Z,21.02
2019-02-23T04:48:17.363Z,20.93
2019-02-23T04:49:17.425Z,20.90
2019-02-23T04:50:17.433Z,20.95
2019-02-23T04:51:17.500Z,20.93
2019-02-23T04:52:17.556Z,20.90
2019-02-23T04:53:17.577Z,20.90
2019-02-23T04:54:17.621Z,20.91
2019-02-23T04:55:17.725Z,20.93
2019-02-23T04:56:17.724Z,20.91
2019-02-23T04:57:17.779Z,20.93
2019-02-23T04:58:17.800Z,20.96
2019-02-23T04:59:17.857Z,20.96
2019-02-23T05:00:17.897Z,20.90
2019-02-23T05:01:17.942Z,20.93
2019-02-23T05:02:17.998Z,20.90
2019-02-23T05:03:18.033Z,20.98
2019-02-23T05:04:18.138Z,20.90
2019-02-23T05:05:18.142Z,20.90
2019-02-23T05:06:18.190Z,20.89
2019-02-23T05:07:18.233Z,20.89
2019-02-23T05:08:18.278Z,20.90
2019-02-23T05:09:18.299Z,20.89
2019-02-23T05:10:18.440Z,20.89
2019-02-23T05:11:18.406Z,20.80
2019-02-23T05:12:18.448Z,20.95
2019-02-23T05:13:18.497Z,20.93
2019-02-23T05:14:18.533Z,20.89
2019-02-23T05:15:18.586Z,20.91
2019-02-23T05:16:18.646Z,20.93
2019-02-23T05:17:18.667Z,20.99
2019-02-23T05:18:18.724Z,20.89
2019-02-23T05:19:18.751Z,20.99
2019-02-23T05:20:18.818Z,20.87
2019-02-23T05:21:26.530Z,20.95
2019-02-23T05:22:18.926Z,20.79
2019-02-23T05:23:18.952Z,20.90
2019-02-23T05:24:19.000Z,20.80
2019-02-23T05:25:19.047Z,20.80
2019-02-23T05:26:19.094Z,20.80
2019-02-23T05:27:19.151Z,20.87
2019-02-23T05:28:19.159Z,20.81
2019-02-23T05:29:19.236Z,20.80
2019-02-23T05:30:19.265Z,20.79
2019-02-23T05:31:22.122Z,20.84
2019-02-23T05:32:19.556Z,20.80
2019-02-23T05:33:19.446Z,20.96
2019-02-23T05:34:19.450Z,20.89
2019-02-23T05:35:19.499Z,20.95
2019-02-23T05:36:19.571Z,20.90
2019-02-23T05:37:19.574Z,20.87
2019-02-23T05:38:19.644Z,20.90
2019-02-23T05:39:19.724Z,20.84
2019-02-23T05:40:19.742Z,20.90
2019-02-23T05:41:19.756Z,20.90
2019-02-23T05:42:19.810Z,20.93
2019-02-23T05:43:19.861Z,20.99
2019-02-23T05:44:19.914Z,20.95
2019-02-23T05:45:19.938Z,20.83
2019-02-23T05:46:19.982Z,20.83
2019-02-23T05:47:20.051Z,20.84
2019-02-23T05:48:20.096Z,20.87
2019-02-23T05:49:20.125Z,20.84
2019-02-23T05:50:20.186Z,20.81
2019-02-23T05:51:20.209Z,20.87
2019-02-23T05:52:20.266Z,20.84
2019-02-23T05:53:20.314Z,20.79
2019-02-23T05:54:20.358Z,20.83
2019-02-23T05:55:20.414Z,20.83
2019-02-23T05:56:20.450Z,20.79
2019-02-23T05:57:20.490Z,20.95
2019-02-23T05:58:20.537Z,20.83
2019-02-23T05:59:20.573Z,20.90
2019-02-23T06:00:20.633Z,20.93
2019-02-23T06:01:20.657Z,20.93
2019-02-23T06:02:20.750Z,20.80
2019-02-23T06:03:20.742Z,20.96
2019-02-23T06:04:20.817Z,20.86
2019-02-23T06:05:20.836Z,20.91
2019-02-23T06:06:20.909Z,20.89
2019-02-23T06:07:20.941Z,20.84
2019-02-23T06:08:20.981Z,20.86
2019-02-23T06:09:21.019Z,20.80
2019-02-23T06:10:21.066Z,20.79
2019-02-23T06:11:21.119Z,20.79
2019-02-23T06:12:21.178Z,20.81
2019-02-23T06:13:21.224Z,20.76
2019-02-23T06:14:21.280Z,20.81
2019-02-23T06:15:21.278Z,20.77
2019-02-23T06:16:21.354Z,20.77
2019-02-23T06:17:21.400Z,20.84
2019-02-23T06:18:21.452Z,20.79
2019-02-23T06:19:21.489Z,20.80
2019-02-23T06:20:21.555Z,20.79
2019-02-23T06:21:21.571Z,20.83
2019-02-23T06:22:21.651Z,20.77
2019-02-23T06:23:21.667Z,20.80
2019-02-23T06:24:21.725Z,20.83
2019-02-23T06:25:21.800Z,20.84
2019-02-23T06:26:21.785Z,20.81
2019-02-23T06:27:21.870Z,20.77
2019-02-23T06:28:21.879Z,20.83
2019-02-23T06:29:21.948Z,20.72
2019-02-23T06:30:21.999Z,20.80
2019-02-23T06:31:22.091Z,20.80
2019-02-23T06:32:22.064Z,20.71
2019-02-23T06:33:22.138Z,20.79
2019-02-23T06:34:22.184Z,20.72
2019-02-23T06:35:22.242Z,20.62
2019-02-23T06:36:22.237Z,20.66
2019-02-23T06:37:22.312Z,20.69
2019-02-23T06:38:22.355Z,20.72
2019-02-23T06:39:22.400Z,20.71
2019-02-23T06:40:22.449Z,20.69
2019-02-23T06:41:22.470Z,20.69
2019-02-23T06:42:22.545Z,20.58
2019-02-23T06:43:22.657Z,20.56
2019-02-23T06:44:22.611Z,20.68
2019-02-23T06:45:22.662Z,20.71
2019-02-23T06:46:22.711Z,20.65
2019-02-23T06:47:22.760Z,20.59
2019-02-23T06:48:22.806Z,20.62
2019-02-23T06:49:22.919Z,20.65
2019-02-23T06:50:22.889Z,20.53
2019-02-23T06:51:22.921Z,20.56
2019-02-23T06:52:23.024Z,20.56
2019-02-23T06:53:23.037Z,20.50
2019-02-23T06:54:23.096Z,20.54
2019-02-23T06:55:23.099Z,20.46
2019-02-23T06:56:23.154Z,20.42
2019-02-23T06:57:23.209Z,20.51
2019-02-23T06:58:23.261Z,20.42
2019-02-23T06:59:23.305Z,20.53
2019-02-23T07:00:23.335Z,20.46
2019-02-23T07:01:23.398Z,20.51
2019-02-23T07:02:23.431Z,20.53
2019-02-23T07:03:23.491Z,20.53
2019-02-23T07:04:23.544Z,20.53
2019-02-23T07:05:23.556Z,20.56
2019-02-23T07:06:23.639Z,20.58
2019-02-23T07:07:23.653Z,20.58
2019-02-23T07:08:23.733Z,20.61
2019-02-23T07:09:23.761Z,20.56
2019-02-23T07:10:23.799Z,20.53
2019-02-23T07:11:23.846Z,20.47
2019-02-23T07:12:23.894Z,20.50
2019-02-23T07:13:23.926Z,20.50
2019-02-23T07:14:23.979Z,20.47
2019-02-23T07:15:24.026Z,20.46
2019-02-23T07:16:24.121Z,20.42
2019-02-23T07:17:24.130Z,20.51
2019-02-23T07:18:24.156Z,20.49
2019-02-23T07:19:24.214Z,20.46
2019-02-23T07:20:24.310Z,20.46
2019-02-23T07:21:24.306Z,20.51
2019-02-23T07:22:24.354Z,20.47
2019-02-23T07:23:24.387Z,20.49
2019-02-23T07:24:24.479Z,20.43
2019-02-23T07:25:24.477Z,20.50
2019-02-23T07:26:24.581Z,20.53
2019-02-23T07:27:24.571Z,20.46
2019-02-23T07:28:24.631Z,20.47
2019-02-23T07:29:24.654Z,20.42
2019-02-23T07:30:24.813Z,20.59
2019-02-23T07:31:24.751Z,20.47
2019-02-23T07:32:24.799Z,20.61
2019-02-23T07:33:32.742Z,20.59
2019-02-23T07:34:24.931Z,20.56
2019-02-23T07:35:25.001Z,20.54
2019-02-23T07:36:24.994Z,20.56
2019-02-23T07:37:25.037Z,20.59
2019-02-23T07:38:25.076Z,20.51
2019-02-23T07:39:25.139Z,20.53
2019-02-23T07:40:25.174Z,20.56
2019-02-23T07:41:25.188Z,20.56
2019-02-23T07:42:25.256Z,20.50
2019-02-23T07:43:25.297Z,20.56
2019-02-23T07:44:25.339Z,20.58
2019-02-23T07:45:25.377Z,20.64
2019-02-23T07:46:25.440Z,20.58
2019-02-23T07:47:25.493Z,20.56
2019-02-23T07:48:25.547Z,20.56
2019-02-23T07:49:25.577Z,20.50
2019-02-23T07:50:25.607Z,20.53
2019-02-23T07:51:25.643Z,20.46
2019-02-23T07:52:26.762Z,20.51
2019-02-23T07:53:25.761Z,20.51
2019-02-23T07:54:25.831Z,20.51
2019-02-23T07:55:25.834Z,20.49
2019-02-23T07:56:25.919Z,20.50
2019-02-23T07:57:25.923Z,20.43
2019-02-23T07:58:26.010Z,20.43
2019-02-23T07:59:26.027Z,20.51
2019-02-23T08:00:26.075Z,20.47
2019-02-23T08:01:26.276Z,20.49
2019-02-23T08:02:26.164Z,20.49
2019-02-23T08:03:26.210Z,20.43
2019-02-23T08:04:26.242Z,20.54
2019-02-23T08:05:26.279Z,20.46
2019-02-23T08:06:26.349Z,20.47
2019-02-23T08:07:26.383Z,20.42
2019-02-23T08:08:26.434Z,20.53
2019-02-23T08:09:26.474Z,20.53
2019-02-23T08:10:26.547Z,20.46
2019-02-23T08:11:26.574Z,20.43
2019-02-23T08:12:26.592Z,20.46
2019-02-23T08:13:26.681Z,20.46
2019-02-23T08:14:26.712Z,20.47
2019-02-23T08:15:26.785Z,20.50
2019-02-23T08:16:26.790Z,20.47
2019-02-23T08:17:26.820Z,20.46
2019-02-23T08:18:26.873Z,20.47
2019-02-23T08:19:26.925Z,20.46
2019-02-23T08:20:26.969Z,20.49
2019-02-23T08:21:27.052Z,20.49
2019-02-23T08:22:36.835Z,20.42
2019-02-23T08:23:27.114Z,20.49
2019-02-23T08:24:27.139Z,20.49
2019-02-23T08:25:27.196Z,20.49
2019-02-23T08:26:27.252Z,20.47
2019-02-23T08:27:27.286Z,20.39
2019-02-23T08:28:27.338Z,20.34
2019-02-23T08:29:27.357Z,20.49
2019-02-23T08:30:27.410Z,20.33
2019-02-23T08:31:27.512Z,20.41
2019-02-23T08:32:27.504Z,20.39
2019-02-23T08:33:27.547Z,20.46
2019-02-23T08:34:27.609Z,20.38
2019-02-23T08:35:27.640Z,20.46
2019-02-23T08:36:27.667Z,20.50
2019-02-23T08:37:27.721Z,20.47
2019-02-23T08:38:27.787Z,20.43
2019-02-23T08:39:27.806Z,20.50
2019-02-23T08:40:27.859Z,20.50
2019-02-23T08:41:27.945Z,20.46
2019-02-23T08:42:27.952Z,20.42
2019-02-23T08:43:27.996Z,20.47
2019-02-23T08:44:28.051Z,20.42
2019-02-23T08:45:28.117Z,20.46
2019-02-23T08:46:28.145Z,20.49
2019-02-23T08:47:28.221Z,20.42
2019-02-23T08:48:28.239Z,20.46
2019-02-23T08:49:28.285Z,20.49
2019-02-23T08:50:28.320Z,20.41
2019-02-23T08:51:28.356Z,20.46
2019-02-23T08:52:28.415Z,20.35
2019-02-23T08:53:28.450Z,20.38
2019-02-23T08:54:28.519Z,20.38
2019-02-23T08:55:28.547Z,20.47
2019-02-23T08:56:30.971Z,20.49
2019-02-23T08:57:28.635Z,20.49
2019-02-23T08:58:28.669Z,20.50
2019-02-23T08:59:28.744Z,20.51
2019-02-23T09:00:28.750Z,20.47
2019-02-23T09:01:28.802Z,20.49
2019-02-23T09:02:28.857Z,20.58
2019-02-23T09:03:28.895Z,20.49
2019-02-23T09:04:28.950Z,20.54
2019-02-23T09:05:29.056Z,20.54
2019-02-23T09:06:29.049Z,20.50
2019-02-23T09:07:29.062Z,20.50
2019-02-23T09:08:29.147Z,20.53
2019-02-23T09:09:29.168Z,20.59
2019-02-23T09:10:29.199Z,20.47
2019-02-23T09:11:29.265Z,20.54
2019-02-23T09:12:29.312Z,20.47
2019-02-23T09:13:29.359Z,20.53
2019-02-23T09:14:29.416Z,20.56
2019-02-23T09:15:29.449Z,20.59
2019-02-23T09:16:29.589Z,20.58
2019-02-23T09:17:29.527Z,20.51
2019-02-23T09:18:29.590Z,20.53
2019-02-23T09:19:29.615Z,20.56
2019-02-23T09:20:29.836Z,20.56
2019-02-23T09:21:29.726Z,20.58
2019-02-23T09:22:29.762Z,20.58
2019-02-23T09:23:29.811Z,20.58
2019-02-23T09:24:29.861Z,20.51
2019-02-23T09:25:29.886Z,20.54
2019-02-23T09:26:29.980Z,20.62
2019-02-23T09:27:29.977Z,20.62
2019-02-23T09:28:30.026Z,20.56
2019-02-23T09:29:30.054Z,20.65
2019-02-23T09:30:30.110Z,20.65
2019-02-23T09:31:30.176Z,20.68
2019-02-23T09:32:30.218Z,20.69
2019-02-23T09:33:30.269Z,20.69
2019-02-23T09:34:30.319Z,20.68
2019-02-23T09:35:30.355Z,20.69
2019-02-23T09:36:30.407Z,20.74
2019-02-23T09:37:30.447Z,20.72
2019-02-23T09:38:30.504Z,20.64
2019-02-23T09:39:30.537Z,20.83
2019-02-23T09:40:30.589Z,20.84
2019-02-23T09:41:30.607Z,20.79
2019-02-23T09:42:30.681Z,20.80
2019-02-23T09:43:30.716Z,20.93
2019-02-23T09:44:30.756Z,20.99
2019-02-23T09:45:30.817Z,21.06
2019-02-23T09:46:30.848Z,21.02
2019-02-23T09:47:30.909Z,21.04
2019-02-23T09:48:30.934Z,21.14
2019-02-23T09:49:30.993Z,21.24
2019-02-23T09:50:31.097Z,21.27
2019-02-23T09:51:31.196Z,21.34
2019-02-23T09:52:31.164Z,21.41
2019-02-23T09:53:31.166Z,21.46
2019-02-23T09:54:31.214Z,21.54
2019-02-23T09:55:31.275Z,21.45
2019-02-23T09:56:31.322Z,21.50
2019-02-23T09:57:31.355Z,21.48
2019-02-23T09:58:31.399Z,21.50
2019-02-23T09:59:31.470Z,21.56
2019-02-23T10:00:31.492Z,21.72
2019-02-23T10:01:31.521Z,21.67
2019-02-23T10:02:31.617Z,21.79
2019-02-23T10:03:31.631Z,21.83
2019-02-23T10:04:31.737Z,21.90
2019-02-23T10:05:31.736Z,21.82
2019-02-23T10:06:31.781Z,21.83
2019-02-23T10:07:31.820Z,21.94
2019-02-23T10:08:31.861Z,21.94
2019-02-23T10:09:31.925Z,22.02
2019-02-23T10:10:31.952Z,22.13
2019-02-23T10:11:32.052Z,22.19
2019-02-23T10:12:32.048Z,22.28
2019-02-23T10:13:32.112Z,22.53
2019-02-23T10:14:32.147Z,22.86
2019-02-23T10:15:32.257Z,23.14
2019-02-23T10:16:32.272Z,23.31
2019-02-23T10:17:32.305Z,23.38
2019-02-23T10:18:32.335Z,23.29
2019-02-23T10:19:32.414Z,23.49
2019-02-23T10:20:32.477Z,24.16
2019-02-23T10:21:32.501Z,24.97
2019-02-23T10:22:32.576Z,25.97
2019-02-23T10:23:32.598Z,26.61
2019-02-23T10:24:32.618Z,27.09
2019-02-23T10:25:32.692Z,27.10
2019-02-23T10:26:32.727Z,27.11
2019-02-23T10:27:32.776Z,27.04
2019-02-23T10:28:32.839Z,26.79
2019-02-23T10:29:32.884Z,26.57
2019-02-23T10:30:32.942Z,26.44
2019-02-23T10:31:32.994Z,26.32
2019-02-23T10:32:33.032Z,26.24
2019-02-23T10:33:33.069Z,26.12
2019-02-23T10:34:33.238Z,25.94
2019-02-23T10:35:33.158Z,25.65
2019-02-23T10:36:33.248Z,25.50
2019-02-23T10:37:33.267Z,25.42
2019-02-23T10:38:33.360Z,25.34
2019-02-23T10:39:33.359Z,25.07
2019-02-23T10:40:33.423Z,25.09
2019-02-23T10:41:33.482Z,25.01
2019-02-23T10:42:33.580Z,25.19
2019-02-23T10:43:33.614Z,25.74
2019-02-23T10:44:33.656Z,26.27
2019-02-23T10:45:33.672Z,27.09
2019-02-23T10:46:33.739Z,27.94
2019-02-23T10:47:33.782Z,28.87
2019-02-23T10:48:33.825Z,29.92
2019-02-23T10:49:33.932Z,30.40
2019-02-23T10:50:33.917Z,30.98
2019-02-23T10:51:34.002Z,31.67
2019-02-23T10:52:34.041Z,32.03
2019-02-23T10:53:34.080Z,32.20
2019-02-23T10:54:34.139Z,32.48
2019-02-23T10:55:34.186Z,32.59
2019-02-23T10:56:34.256Z,32.84
2019-02-23T10:57:34.290Z,32.98
2019-02-23T10:58:34.343Z,33.20
2019-02-23T10:59:34.404Z,33.53
2019-02-23T11:00:34.460Z,34.22
2019-02-23T11:01:34.530Z,34.91
2019-02-23T11:02:34.573Z,35.25
2019-02-23T11:03:34.627Z,35.02
2019-02-23T11:04:34.687Z,35.23
2019-02-23T11:05:34.753Z,35.62
2019-02-23T11:06:34.859Z,35.70
2019-02-23T11:07:34.908Z,35.95
2019-02-23T11:08:34.921Z,35.99
2019-02-23T11:09:34.957Z,36.07
2019-02-23T11:10:35.097Z,36.41
2019-02-23T11:11:35.087Z,36.43
2019-02-23T11:12:35.132Z,36.38
2019-02-23T11:13:35.189Z,36.51
2019-02-23T11:14:35.269Z,36.86
2019-02-23T11:15:35.322Z,37.23
2019-02-23T11:16:35.367Z,37.14
2019-02-23T11:17:35.454Z,37.26
2019-02-23T11:18:35.508Z,37.58
2019-02-23T11:19:35.543Z,37.80
2019-02-23T11:20:35.658Z,38.18
2019-02-23T11:21:35.683Z,38.39
2019-02-23T11:22:35.711Z,38.49
2019-02-23T11:23:43.779Z,37.88
2019-02-23T11:24:35.826Z,37.48
2019-02-23T11:25:35.915Z,37.38
2019-02-23T11:26:35.953Z,36.11
2019-02-23T11:27:36.039Z,36.30
2019-02-23T11:28:36.076Z,35.79
2019-02-23T11:29:36.145Z,35.97
2019-02-23T11:30:36.184Z,36.01
2019-02-23T11:31:36.254Z,36.21
2019-02-23T11:32:36.313Z,35.73
2019-02-23T11:33:36.379Z,35.82
2019-02-23T11:34:36.441Z,36.30
2019-02-23T11:35:36.494Z,36.68
2019-02-23T11:36:36.543Z,36.85
2019-02-23T11:37:36.610Z,36.77
2019-02-23T11:38:36.709Z,37.17
2019-02-23T11:39:36.735Z,36.99
2019-02-23T11:40:36.797Z,36.61
2019-02-23T11:41:36.847Z,36.75
2019-02-23T11:42:36.920Z,37.09
2019-02-23T11:43:36.974Z,37.39
2019-02-23T11:44:37.047Z,37.32
2019-02-23T11:45:37.098Z,37.64
2019-02-23T11:46:37.162Z,38.03
2019-02-23T11:47:37.227Z,38.30
2019-02-23T11:48:37.317Z,38.53
2019-02-23T11:49:37.339Z,37.02
2019-02-23T11:50:37.387Z,36.64
2019-02-23T11:51:37.543Z,36.20
2019-02-23T11:52:39.415Z,35.63
2019-02-23T11:53:37.569Z,36.15
2019-02-23T11:54:37.629Z,36.61
2019-02-23T11:55:37.689Z,36.87
2019-02-23T11:56:37.759Z,37.46
2019-02-23T11:57:37.814Z,37.98
2019-02-23T11:58:37.926Z,38.48
2019-02-23T11:59:37.928Z,39.06
2019-02-23T12:00:37.986Z,38.55
2019-02-23T12:01:38.036Z,37.35
2019-02-23T12:02:38.107Z,37.20
2019-02-23T12:03:38.172Z,37.17
2019-02-23T12:04:38.270Z,36.83
2019-02-23T12:05:38.287Z,36.77
2019-02-23T12:06:38.406Z,36.91
2019-02-23T12:07:38.410Z,36.75
2019-02-23T12:08:38.469Z,36.39
2019-02-23T12:09:38.542Z,36.08
2019-02-23T12:10:38.593Z,35.85
2019-02-23T12:11:38.666Z,35.29
2019-02-23T12:12:38.734Z,34.98
2019-02-23T12:13:38.763Z,34.74
2019-02-23T12:14:38.843Z,34.98
2019-02-23T12:15:38.907Z,35.29
2019-02-23T12:16:38.974Z,35.63
2019-02-23T12:17:39.045Z,35.40
2019-02-23T12:18:39.124Z,35.10
2019-02-23T12:19:39.127Z,35.20
2019-02-23T12:20:39.196Z,35.51
2019-02-23T12:21:39.246Z,35.64
2019-02-23T12:22:39.404Z,35.69
2019-02-23T12:23:39.395Z,35.51
2019-02-23T12:24:39.482Z,36.00
2019-02-23T12:25:39.508Z,35.48
2019-02-23T12:26:39.553Z,35.85
2019-02-23T12:27:39.633Z,36.58
2019-02-23T12:28:39.690Z,37.16
2019-02-23T12:29:39.743Z,37.13
2019-02-23T12:30:39.819Z,36.38
2019-02-23T12:31:39.846Z,36.85
2019-02-23T12:32:39.982Z,37.19
2019-02-23T12:33:39.973Z,37.02
2019-02-23T12:34:40.034Z,37.29
2019-02-23T12:35:40.122Z,37.54
2019-02-23T12:36:40.163Z,37.71
2019-02-23T12:37:40.218Z,37.12
2019-02-23T12:38:40.305Z,37.10
2019-02-23T12:39:40.351Z,37.21
2019-02-23T12:40:40.436Z,37.32
2019-02-23T12:41:40.506Z,38.17
2019-02-23T12:42:40.512Z,38.53
2019-02-23T12:43:40.581Z,38.73
2019-02-23T12:44:40.659Z,38.45
2019-02-23T12:45:40.731Z,38.15
2019-02-23T12:46:40.784Z,38.12
2019-02-23T12:47:40.826Z,37.85
2019-02-23T12:48:40.910Z,37.26
2019-02-23T12:49:40.963Z,36.83
2019-02-23T12:50:41.009Z,37.02
2019-02-23T12:51:41.093Z,37.02
2019-02-23T12:52:41.168Z,37.42